Avery Island, Louisiana
Current Conditions -  °F | °C
As of 8:53 AM on Saturday 20 Dec 2014 (Local Time) from KARA Reporting Station
Overcast Overcast  
Wind Chill: 50°   Ceiling: 500
Heat Index: 50°   Visibility: 8mi
Dew Point: 48°   Wind: 12mph
Humidity: 93%   Direction: 10°N
Pressure: 30.17"   Gusts: NA
Location:  29.91°N, 91.91°W
Report Text: KARA 201453Z 01010KT 8SM OVC005 10/09 A3017 RMK AO2 SLP214 T01000089 51015
Loading
Personal Weather Stations






























Interactive Weather Map New forecast layout! Learn more

10-Day Weather Forecast

Advertisements
Track Severe Weather on mobile